createdAt,value
2023-03-02T00:00:16.740Z,92.40
2023-03-02T00:02:45.948Z,92.20
2023-03-02T00:05:15.067Z,92.10
2023-03-02T00:07:45.303Z,92.50
2023-03-02T00:10:14.089Z,92.90
2023-03-02T00:12:43.165Z,93.30
2023-03-02T00:15:12.308Z,93.10
2023-03-02T00:17:40.981Z,93.10
2023-03-02T00:20:11.802Z,93.30
2023-03-02T00:22:41.295Z,93.40
2023-03-02T00:25:12.819Z,93.90
2023-03-02T00:27:41.996Z,93.90
2023-03-02T00:30:14.222Z,94.40
2023-03-02T00:32:43.429Z,94.50
2023-03-02T00:35:13.962Z,94.50
2023-03-02T00:37:43.084Z,94.50
2023-03-02T00:40:14.359Z,94.80
2023-03-02T00:42:43.489Z,95.10
2023-03-02T00:45:12.757Z,95.70
2023-03-02T00:47:42.559Z,96.00
2023-03-02T00:50:12.404Z,96.10
2023-03-02T00:52:42.352Z,96.40
2023-03-02T00:55:13.204Z,96.10
2023-03-02T00:57:42.155Z,96.40
2023-03-02T01:00:12.354Z,96.50
2023-03-02T01:02:44.676Z,95.80
2023-03-02T01:05:17.674Z,95.90
2023-03-02T01:07:46.653Z,95.90
2023-03-02T01:10:18.028Z,95.70
2023-03-02T01:12:47.209Z,95.80
2023-03-02T01:15:16.314Z,96.20
2023-03-02T01:17:47.276Z,96.40
2023-03-02T01:20:16.780Z,97.00
2023-03-02T01:22:45.703Z,97.20
2023-03-02T01:25:16.583Z,96.50
2023-03-02T01:27:46.183Z,96.40
2023-03-02T01:30:15.539Z,96.90
2023-03-02T01:32:45.273Z,97.00
2023-03-02T01:35:14.842Z,97.30
2023-03-02T01:37:43.711Z,97.70
2023-03-02T01:40:16.982Z,97.80
2023-03-02T01:42:58.278Z,97.60
2023-03-02T01:45:47.889Z,96.90
2023-03-02T01:48:27.622Z,96.60
2023-03-02T01:50:57.382Z,96.60
2023-03-02T01:53:30.320Z,96.60
2023-03-02T01:56:03.835Z,95.80
2023-03-02T01:58:38.085Z,95.40
2023-03-02T02:01:15.837Z,95.50
2023-03-02T02:03:47.457Z,95.20
2023-03-02T02:06:23.056Z,95.10
2023-03-02T02:08:52.952Z,95.30
2023-03-02T02:11:23.687Z,95.10
2023-03-02T02:13:57.082Z,94.60
2023-03-02T02:16:26.508Z,94.40
2023-03-02T02:18:55.555Z,94.40
2023-03-02T02:21:26.083Z,94.60
2023-03-02T02:24:04.783Z,94.60
2023-03-02T02:26:39.256Z,94.50
2023-03-02T02:29:12.909Z,94.40
2023-03-02T02:31:53.594Z,94.20
2023-03-02T02:34:26.687Z,94.20
2023-03-02T02:37:00.969Z,94.20
2023-03-02T02:39:34.485Z,94.20
2023-03-02T02:42:08.466Z,94.20
2023-03-02T02:44:37.275Z,94.40
2023-03-02T02:47:07.732Z,94.40
2023-03-02T02:49:38.424Z,94.30
2023-03-02T02:52:08.801Z,94.20
2023-03-02T02:54:39.224Z,93.80
2023-03-02T02:57:12.208Z,93.80
2023-03-02T02:59:46.726Z,93.80
2023-03-02T03:02:20.946Z,93.80
2023-03-02T03:04:49.879Z,93.90
2023-03-02T03:07:21.975Z,94.30
2023-03-02T03:09:59.943Z,94.10
2023-03-02T03:12:33.427Z,94.10
2023-03-02T03:15:04.830Z,93.90
2023-03-02T03:17:33.666Z,94.00
2023-03-02T03:20:08.946Z,94.00
2023-03-02T03:22:41.608Z,94.10
2023-03-02T03:25:15.722Z,94.00
2023-03-02T03:27:49.519Z,93.90
2023-03-02T03:30:19.295Z,93.90
2023-03-02T03:32:48.787Z,93.70
2023-03-02T03:35:19.233Z,93.30
2023-03-02T03:37:48.670Z,93.10
2023-03-02T03:40:18.754Z,93.20
2023-03-02T03:42:50.451Z,93.10
2023-03-02T03:45:19.821Z,93.40
2023-03-02T03:47:48.683Z,93.70
2023-03-02T03:50:17.532Z,94.20
2023-03-02T03:52:46.563Z,93.90
2023-03-02T03:55:20.967Z,94.00
2023-03-02T03:57:53.166Z,93.90
2023-03-02T04:00:23.198Z,93.90
2023-03-02T04:02:58.402Z,93.90
2023-03-02T04:05:31.607Z,93.70
2023-03-02T04:08:02.842Z,94.00
2023-03-02T04:10:32.882Z,94.30
2023-03-02T04:13:04.104Z,94.00
2023-03-02T04:15:33.374Z,93.80
2023-03-02T04:18:02.885Z,93.80
2023-03-02T04:20:33.596Z,94.20
2023-03-02T04:23:02.676Z,94.40
2023-03-02T04:25:33.223Z,94.10
2023-03-02T04:28:19.793Z,94.00
2023-03-02T04:30:48.565Z,94.10
2023-03-02T04:33:17.627Z,94.20
2023-03-02T04:35:46.670Z,94.30
2023-03-02T04:38:15.992Z,94.30
2023-03-02T04:40:46.377Z,94.40
2023-03-02T04:43:15.074Z,94.40
2023-03-02T04:45:45.671Z,94.40
2023-03-02T04:48:14.525Z,94.60
2023-03-02T04:50:43.704Z,94.20
2023-03-02T04:53:12.547Z,94.00
2023-03-02T04:55:42.199Z,93.80
2023-03-02T04:58:11.471Z,94.00
2023-03-02T05:00:40.722Z,94.20
2023-03-02T05:03:11.597Z,94.20
2023-03-02T05:05:40.496Z,94.20
2023-03-02T05:08:09.843Z,94.00
2023-03-02T05:10:38.575Z,93.70
2023-03-02T05:13:07.499Z,93.50
2023-03-02T05:15:38.591Z,93.20
2023-03-02T05:18:09.417Z,93.00
2023-03-02T05:20:40.124Z,92.90
2023-03-02T05:23:11.426Z,92.50
2023-03-02T05:25:40.531Z,92.30
2023-03-02T05:28:09.338Z,92.30
2023-03-02T05:30:38.602Z,92.00
2023-03-02T05:33:07.433Z,92.10
2023-03-02T05:35:36.751Z,91.80
2023-03-02T05:38:07.746Z,92.00
2023-03-02T05:40:37.540Z,92.10
2023-03-02T05:43:06.952Z,92.10
2023-03-02T05:45:38.539Z,92.20
2023-03-02T05:48:08.825Z,92.40
2023-03-02T05:50:37.937Z,92.50
2023-03-02T05:53:08.571Z,92.80
2023-03-02T05:55:38.116Z,92.80
2023-03-02T05:58:09.342Z,93.10
2023-03-02T06:00:38.620Z,93.30
2023-03-02T06:03:08.193Z,93.80
2023-03-02T06:05:37.147Z,94.20
2023-03-02T06:08:07.710Z,93.80
2023-03-02T06:10:37.224Z,93.90
2023-03-02T06:13:06.136Z,94.30
2023-03-02T06:15:35.842Z,94.40
2023-03-02T06:18:05.177Z,94.50
2023-03-02T06:20:35.175Z,94.80
2023-03-02T06:23:04.142Z,95.00
2023-03-02T06:25:36.311Z,95.90
2023-03-02T06:28:08.274Z,95.70
2023-03-02T06:30:36.922Z,95.20
2023-03-02T06:33:06.614Z,94.70
2023-03-02T06:35:36.581Z,94.50
2023-03-02T06:38:06.291Z,94.70
2023-03-02T06:40:37.318Z,95.00
2023-03-02T06:43:07.049Z,95.40
2023-03-02T06:45:36.055Z,95.40
2023-03-02T06:48:05.766Z,95.10
2023-03-02T06:50:35.163Z,94.90
2023-03-02T06:53:04.608Z,94.70
2023-03-02T06:55:33.957Z,94.70
2023-03-02T06:58:04.715Z,94.30
2023-03-02T07:00:33.427Z,94.20
2023-03-02T07:03:02.474Z,94.00
2023-03-02T07:05:32.912Z,93.90
2023-03-02T07:08:01.904Z,93.90
2023-03-02T07:10:30.843Z,94.00
2023-03-02T07:12:59.719Z,93.50
2023-03-02T07:15:30.469Z,93.60
2023-03-02T07:17:59.423Z,93.60
2023-03-02T07:20:28.435Z,93.60
2023-03-02T07:22:57.492Z,93.60
2023-03-02T07:25:26.541Z,93.60
2023-03-02T07:27:55.621Z,93.30
2023-03-02T07:30:24.648Z,93.20
2023-03-02T07:32:55.104Z,93.00
2023-03-02T07:35:23.926Z,92.80
2023-03-02T07:37:54.216Z,92.80
2023-03-02T07:40:23.435Z,92.70
2023-03-02T07:42:52.282Z,92.60
2023-03-02T07:45:25.088Z,92.20
2023-03-02T07:47:55.738Z,91.80
2023-03-02T07:50:25.022Z,91.90
2023-03-02T07:52:54.197Z,91.50
2023-03-02T07:55:23.831Z,91.30
2023-03-02T07:57:52.815Z,90.50
2023-03-02T08:00:23.767Z,90.40
2023-03-02T08:02:53.028Z,89.90
2023-03-02T08:05:23.882Z,89.60
2023-03-02T08:07:53.000Z,89.40
2023-03-02T08:10:21.759Z,89.10
2023-03-02T08:12:50.731Z,88.70
2023-03-02T08:15:20.041Z,88.80
2023-03-02T08:17:49.560Z,88.50
2023-03-02T08:20:18.736Z,88.30
2023-03-02T08:22:49.385Z,87.80
2023-03-02T08:25:18.230Z,87.40
2023-03-02T08:27:48.074Z,87.60
2023-03-02T08:30:17.597Z,87.30
2023-03-02T08:32:46.448Z,87.00
2023-03-02T08:35:15.479Z,86.80
2023-03-02T08:37:44.475Z,86.60
2023-03-02T08:40:15.629Z,85.70
2023-03-02T08:42:44.776Z,86.00
2023-03-02T08:45:14.694Z,85.40
2023-03-02T08:47:43.787Z,85.20
2023-03-02T08:50:13.112Z,84.80
2023-03-02T08:52:43.927Z,84.40
2023-03-02T08:55:13.160Z,84.60
2023-03-02T08:57:44.598Z,84.50
2023-03-02T09:00:16.995Z,84.10
2023-03-02T09:02:46.132Z,84.10
2023-03-02T09:05:15.202Z,83.50
2023-03-02T09:07:44.173Z,82.90
2023-03-02T09:10:13.267Z,82.30
2023-03-02T09:12:43.787Z,81.60
2023-03-02T09:15:12.780Z,81.70
2023-03-02T09:17:41.680Z,81.10
2023-03-02T09:20:12.419Z,80.80
2023-03-02T09:22:42.981Z,80.60
2023-03-02T09:25:11.821Z,79.90
2023-03-02T09:27:41.094Z,79.80
2023-03-02T09:30:14.314Z,79.80
2023-03-02T09:32:43.956Z,78.80
2023-03-02T09:35:13.832Z,78.80
2023-03-02T09:37:44.374Z,78.20
2023-03-02T09:40:20.511Z,78.20
2023-03-02T09:43:08.410Z,77.60
2023-03-02T09:46:10.538Z,77.70
2023-03-02T09:48:47.086Z,77.40
2023-03-02T09:51:31.423Z,77.20
2023-03-02T09:54:08.671Z,76.50
2023-03-02T09:56:41.538Z,76.30
2023-03-02T09:59:21.786Z,76.30
2023-03-02T10:01:56.368Z,75.70
2023-03-02T10:04:28.469Z,75.40
2023-03-02T10:07:12.224Z,75.20
2023-03-02T10:09:41.509Z,75.20
2023-03-02T10:12:30.060Z,74.90
2023-03-02T10:15:05.940Z,74.80
2023-03-02T10:17:53.164Z,74.10
2023-03-02T10:20:34.198Z,74.00
2023-03-02T10:23:21.330Z,73.80
2023-03-02T10:25:54.420Z,73.90
2023-03-02T10:28:25.747Z,74.10
2023-03-02T10:31:05.414Z,73.40
2023-03-02T10:33:38.855Z,73.30
2023-03-02T10:36:21.749Z,72.60
2023-03-02T10:38:56.230Z,72.90
2023-03-02T10:41:31.537Z,72.70
2023-03-02T10:44:04.412Z,72.60
2023-03-02T10:46:45.995Z,72.30
2023-03-02T10:49:31.784Z,70.80
2023-03-02T10:52:03.982Z,70.30
2023-03-02T10:54:37.608Z,70.00
2023-03-02T10:57:29.682Z,68.50
2023-03-02T11:00:03.988Z,67.80
2023-03-02T11:02:37.685Z,66.70
2023-03-02T11:05:30.831Z,65.50
2023-03-02T11:08:02.504Z,64.20
2023-03-02T11:10:34.652Z,63.50
2023-03-02T11:13:20.240Z,63.00
2023-03-02T11:15:51.054Z,63.40
2023-03-02T11:18:30.741Z,62.80
2023-03-02T11:21:06.158Z,63.20
2023-03-02T11:23:58.108Z,63.10
2023-03-02T11:26:30.633Z,62.60
2023-03-02T11:29:04.809Z,62.70
2023-03-02T11:31:40.606Z,61.20
2023-03-02T11:34:35.440Z,61.70
2023-03-02T11:37:18.014Z,62.10
2023-03-02T11:40:07.536Z,62.30
2023-03-02T11:42:45.674Z,62.00
2023-03-02T11:45:28.028Z,62.00
2023-03-02T11:48:04.282Z,62.20
2023-03-02T11:50:39.851Z,61.80
2023-03-02T11:53:18.967Z,60.30
2023-03-02T11:55:52.757Z,58.80
2023-03-02T11:58:29.822Z,58.30
2023-03-02T12:01:00.579Z,59.60
2023-03-02T12:03:45.566Z,59.20
2023-03-02T12:06:38.524Z,58.20
2023-03-02T12:09:43.061Z,58.90
2023-03-02T12:12:45.362Z,58.40
2023-03-02T12:15:45.896Z,56.80
2023-03-02T12:18:33.772Z,57.00
2023-03-02T12:21:05.261Z,57.00
2023-03-02T12:23:40.712Z,56.70
2023-03-02T12:26:33.315Z,56.40
2023-03-02T12:29:08.006Z,57.20
2023-03-02T12:31:48.771Z,56.60
2023-03-02T12:34:35.407Z,56.80
2023-03-02T12:37:14.768Z,55.80
2023-03-02T12:40:14.053Z,56.60
2023-03-02T12:43:16.510Z,56.10
2023-03-02T12:46:22.209Z,55.80
2023-03-02T12:49:02.087Z,55.40
2023-03-02T12:51:34.272Z,56.40
2023-03-02T12:54:08.745Z,55.40
2023-03-02T12:56:39.889Z,56.30
2023-03-02T12:59:24.952Z,54.70
2023-03-02T13:01:57.425Z,54.70
2023-03-02T13:04:28.707Z,54.30
2023-03-02T13:06:59.932Z,54.70
2023-03-02T13:09:31.279Z,54.60
2023-03-02T13:12:00.523Z,53.20
2023-03-02T13:14:34.788Z,52.60
2023-03-02T13:17:04.978Z,53.40
2023-03-02T14:05:42.088Z,47.50
2023-03-02T14:08:29.840Z,45.90
2023-03-02T14:12:27.781Z,45.30
2023-03-02T14:20:42.060Z,47.20
2023-03-02T14:23:18.762Z,49.10
2023-03-02T14:26:08.936Z,50.00
2023-03-02T14:29:04.980Z,51.30
2023-03-02T14:32:04.118Z,49.70
2023-03-02T14:35:15.988Z,49.20
2023-03-02T14:38:28.576Z,49.90
2023-03-02T14:52:41.389Z,51.20
2023-03-02T16:25:45.345Z,69.80
2023-03-02T16:28:49.225Z,70.70
2023-03-02T16:31:20.488Z,71.80
2023-03-02T16:33:51.739Z,72.70
2023-03-02T16:36:20.478Z,73.10
2023-03-02T16:38:50.968Z,73.70
2023-03-02T16:41:23.132Z,74.00
2023-03-02T16:43:53.574Z,74.50
2023-03-02T16:46:24.928Z,74.90
2023-03-02T16:48:54.261Z,75.10
2023-03-02T16:51:23.125Z,75.40
2023-03-02T16:53:52.099Z,75.60
2023-03-02T16:56:24.343Z,76.00
2023-03-02T16:58:55.701Z,76.60
2023-03-02T17:01:25.794Z,77.10
2023-03-02T17:03:54.678Z,77.50
2023-03-02T17:06:25.245Z,77.80
2023-03-02T17:08:54.027Z,78.20
2023-03-02T17:11:24.145Z,78.60
2023-03-02T17:13:52.721Z,79.20
2023-03-02T17:16:21.209Z,79.50
2023-03-02T17:18:50.134Z,79.80
2023-03-02T17:21:19.658Z,80.40
2023-03-02T17:23:49.524Z,80.10
2023-03-02T17:26:18.555Z,80.40
2023-03-02T17:28:48.639Z,80.60
2023-03-02T17:31:17.545Z,80.70
2023-03-02T17:33:46.382Z,81.20
2023-03-02T17:36:15.882Z,81.70
2023-03-02T17:38:44.618Z,81.90
2023-03-02T17:41:14.069Z,82.30
2023-03-02T17:43:43.811Z,83.20
2023-03-02T17:46:16.805Z,83.20
2023-03-02T17:48:45.457Z,83.40
2023-03-02T17:51:15.099Z,83.50
2023-03-02T17:53:44.103Z,83.80
2023-03-02T17:56:13.551Z,84.30
2023-03-02T17:58:45.360Z,85.00
2023-03-02T18:01:16.934Z,85.70
2023-03-02T18:03:46.307Z,86.10
2023-03-02T18:06:20.892Z,86.80
2023-03-02T18:08:53.379Z,87.70
2023-03-02T18:11:24.874Z,88.50
2023-03-02T18:13:54.890Z,89.60
2023-03-02T18:16:26.853Z,90.20
2023-03-02T18:18:55.619Z,91.20
2023-03-02T18:21:24.368Z,91.70
2023-03-02T18:23:53.346Z,92.10
2023-03-02T18:26:22.142Z,92.60
2023-03-02T18:28:50.999Z,93.00
2023-03-02T18:31:20.363Z,93.60
2023-03-02T18:33:50.985Z,93.80
2023-03-02T18:36:19.634Z,93.90
2023-03-02T18:38:48.303Z,93.90
2023-03-02T18:41:16.901Z,94.00
2023-03-02T18:43:45.633Z,94.10
2023-03-02T18:46:24.152Z,94.30
2023-03-02T18:48:56.176Z,94.50
2023-03-02T18:51:26.499Z,94.90
2023-03-02T18:53:55.721Z,95.20
2023-03-02T18:56:25.744Z,95.30
2023-03-02T18:58:54.623Z,95.40
2023-03-02T19:01:23.549Z,95.70
2023-03-02T19:03:57.033Z,96.20
2023-03-02T19:06:25.678Z,96.70
2023-03-02T19:08:54.313Z,96.80
2023-03-02T19:11:23.011Z,96.90
2023-03-02T19:13:51.546Z,97.30
2023-03-02T19:16:20.484Z,97.70
2023-03-02T19:18:50.292Z,98.30
2023-03-02T19:21:20.610Z,98.40
2023-03-02T19:23:49.317Z,98.60
2023-03-02T19:26:18.341Z,98.70
2023-03-02T19:28:47.462Z,99.10
2023-03-02T19:31:16.788Z,99.60
2023-03-02T19:33:46.404Z,99.70
2023-03-02T19:36:15.506Z,99.90
2023-03-02T19:38:45.741Z,99.90
2023-03-02T19:41:16.434Z,99.90
2023-03-02T19:43:46.115Z,99.90
2023-03-02T19:46:15.234Z,99.90
2023-03-02T19:48:44.742Z,99.90
2023-03-02T19:51:13.704Z,99.90
2023-03-02T19:53:42.530Z,99.90
2023-03-02T19:56:15.722Z,99.90
2023-03-02T19:58:49.947Z,99.90
2023-03-02T20:01:21.916Z,99.90
2023-03-02T20:03:57.640Z,99.90
2023-03-02T20:06:30.653Z,99.90
2023-03-02T20:09:00.816Z,99.90
2023-03-02T20:11:32.394Z,99.90
2023-03-02T20:14:02.503Z,99.90
2023-03-02T20:16:31.547Z,99.90
2023-03-02T20:19:02.196Z,99.90
2023-03-02T20:21:31.320Z,99.90
2023-03-02T20:24:00.250Z,99.90
2023-03-02T20:26:31.111Z,99.90
2023-03-02T20:29:02.588Z,99.90
2023-03-02T20:31:35.322Z,99.90
2023-03-02T20:34:06.406Z,99.90
2023-03-02T20:36:36.267Z,99.90
2023-03-02T20:39:10.356Z,99.90
2023-03-02T20:41:40.647Z,99.90
2023-03-02T20:44:11.121Z,99.90
2023-03-02T20:46:43.194Z,99.90
2023-03-02T20:49:15.327Z,99.90
2023-03-02T20:51:49.428Z,99.90
2023-03-02T20:54:18.091Z,99.90
2023-03-02T20:56:48.454Z,99.90
2023-03-02T20:59:17.612Z,99.90
2023-03-02T21:01:46.226Z,99.90
2023-03-02T21:04:14.963Z,99.90
2023-03-02T21:06:44.007Z,99.90
2023-03-02T21:09:13.901Z,99.90
2023-03-02T21:11:42.499Z,99.90
2023-03-02T21:14:14.307Z,99.90
2023-03-02T21:16:44.654Z,99.90
2023-03-02T21:19:16.232Z,99.90
2023-03-02T21:21:44.992Z,99.90
2023-03-02T21:24:16.892Z,99.90
2023-03-02T21:26:47.333Z,99.90
2023-03-02T21:29:18.834Z,99.90
2023-03-02T21:31:47.927Z,99.90
2023-03-02T21:34:18.973Z,99.90
2023-03-02T21:36:48.603Z,99.90
2023-03-02T21:39:17.761Z,99.90
2023-03-02T21:41:46.410Z,99.90
2023-03-02T21:44:16.862Z,99.90
2023-03-02T21:46:45.404Z,99.90
2023-03-02T21:49:17.335Z,99.90
2023-03-02T21:51:47.102Z,99.90
2023-03-02T21:54:17.574Z,99.90
2023-03-02T21:56:46.364Z,99.90
2023-03-02T21:59:16.583Z,99.90
2023-03-02T22:01:45.766Z,99.90
2023-03-02T22:04:14.367Z,99.90
2023-03-02T22:06:43.020Z,99.90
2023-03-02T22:09:12.834Z,99.90
2023-03-02T22:11:41.466Z,99.90
2023-03-02T22:14:14.383Z,99.90
2023-03-02T22:16:48.076Z,99.90
2023-03-02T22:19:25.798Z,99.90
2023-03-02T22:21:55.565Z,99.90
2023-03-02T22:24:26.566Z,99.90
2023-03-02T22:27:00.208Z,99.90
2023-03-02T22:29:31.617Z,99.90
2023-03-02T22:32:15.489Z,99.90
2023-03-02T22:34:45.327Z,99.90
2023-03-02T22:37:17.746Z,99.90
2023-03-02T22:39:46.530Z,99.90
2023-03-02T22:42:16.908Z,99.90
2023-03-02T22:44:45.939Z,99.90
2023-03-02T22:47:18.677Z,99.90
2023-03-02T22:49:48.004Z,99.90
2023-03-02T22:52:18.968Z,99.90
2023-03-02T22:54:47.878Z,99.90
2023-03-02T22:57:31.107Z,99.90
2023-03-02T23:00:19.448Z,99.90
2023-03-02T23:02:54.213Z,99.90
2023-03-02T23:05:27.511Z,99.90
2023-03-02T23:08:02.774Z,99.90
2023-03-02T23:10:31.435Z,99.90
2023-03-02T23:13:06.270Z,99.90
2023-03-02T23:15:37.575Z,99.90
2023-03-02T23:18:23.283Z,99.90
2023-03-02T23:20:52.790Z,99.90
2023-03-02T23:23:22.586Z,99.90
2023-03-02T23:25:51.407Z,99.90
2023-03-02T23:28:19.874Z,99.90
2023-03-02T23:30:50.056Z,99.90
2023-03-02T23:33:25.219Z,99.90
2023-03-02T23:35:54.087Z,99.90
2023-03-02T23:38:22.545Z,99.90
2023-03-02T23:40:52.431Z,99.90
2023-03-02T23:43:21.072Z,99.90
2023-03-02T23:45:49.521Z,99.90
2023-03-02T23:48:18.389Z,99.90
2023-03-02T23:50:48.334Z,99.90
2023-03-02T23:53:16.765Z,99.90
2023-03-02T23:55:50.383Z,99.90
2023-03-02T23:58:19.357Z,99.90
